sensor_id;sensor_type;location;lat;lon;timestamp;P1;durP1;ratioP1;P2;durP2;ratioP2
22614;SDS011;11474;50.790;0.298;2023-06-22T00:01:28;14.73;;;9.18;;
22614;SDS011;11474;50.790;0.298;2023-06-22T00:03:54;21.15;;;10.30;;
22614;SDS011;11474;50.790;0.298;2023-06-22T00:06:21;17.63;;;10.60;;
22614;SDS011;11474;50.790;0.298;2023-06-22T00:08:47;17.65;;;11.27;;
22614;SDS011;11474;50.790;0.298;2023-06-22T00:11:13;19.55;;;12.60;;
22614;SDS011;11474;50.790;0.298;2023-06-22T00:13:39;19.00;;;12.30;;
22614;SDS011;11474;50.790;0.298;2023-06-22T00:16:05;18.67;;;12.10;;
22614;SDS011;11474;50.790;0.298;2023-06-22T00:18:31;20.00;;;10.25;;
22614;SDS011;11474;50.790;0.298;2023-06-22T00:20:57;19.38;;;11.88;;
22614;SDS011;11474;50.790;0.298;2023-06-22T00:23:24;20.92;;;11.68;;
22614;SDS011;11474;50.790;0.298;2023-06-22T00:25:50;38.33;;;9.65;;
22614;SDS011;11474;50.790;0.298;2023-06-22T00:28:16;21.55;;;9.88;;
22614;SDS011;11474;50.790;0.298;2023-06-22T00:30:42;22.67;;;13.00;;
22614;SDS011;11474;50.790;0.298;2023-06-22T00:33:09;23.07;;;14.03;;
22614;SDS011;11474;50.790;0.298;2023-06-22T00:35:35;27.38;;;15.48;;
22614;SDS011;11474;50.790;0.298;2023-06-22T00:38:01;23.80;;;15.63;;
22614;SDS011;11474;50.790;0.298;2023-06-22T00:40:29;26.75;;;15.77;;
22614;SDS011;11474;50.790;0.298;2023-06-22T00:42:55;28.95;;;17.20;;
22614;SDS011;11474;50.790;0.298;2023-06-22T00:45:22;29.93;;;17.07;;
22614;SDS011;11474;50.790;0.298;2023-06-22T00:47:51;29.83;;;16.00;;
22614;SDS011;11474;50.790;0.298;2023-06-22T00:50:19;25.55;;;14.95;;
22614;SDS011;11474;50.790;0.298;2023-06-22T00:52:48;29.63;;;13.88;;
22614;SDS011;11474;50.790;0.298;2023-06-22T00:55:14;21.55;;;13.38;;
22614;SDS011;11474;50.790;0.298;2023-06-22T00:57:43;27.30;;;15.00;;
22614;SDS011;11474;50.790;0.298;2023-06-22T01:00:09;26.15;;;15.70;;
22614;SDS011;11474;50.790;0.298;2023-06-22T01:02:36;25.50;;;15.00;;
22614;SDS011;11474;50.790;0.298;2023-06-22T01:05:04;25.83;;;15.75;;
22614;SDS011;11474;50.790;0.298;2023-06-22T01:07:39;24.35;;;13.20;;
22614;SDS011;11474;50.790;0.298;2023-06-22T01:10:25;23.77;;;13.18;;
22614;SDS011;11474;50.790;0.298;2023-06-22T01:12:53;31.00;;;16.73;;
22614;SDS011;11474;50.790;0.298;2023-06-22T01:15:30;27.23;;;16.00;;
22614;SDS011;11474;50.790;0.298;2023-06-22T01:17:57;26.55;;;16.63;;
22614;SDS011;11474;50.790;0.298;2023-06-22T01:20:23;29.58;;;16.25;;
22614;SDS011;11474;50.790;0.298;2023-06-22T01:23:10;26.70;;;16.20;;
22614;SDS011;11474;50.790;0.298;2023-06-22T01:30:51;17.73;;;10.52;;
22614;SDS011;11474;50.790;0.298;2023-06-22T01:33:28;18.50;;;7.30;;
22614;SDS011;11474;50.790;0.298;2023-06-22T01:35:54;17.45;;;10.88;;
22614;SDS011;11474;50.790;0.298;2023-06-22T01:38:20;21.88;;;12.48;;
22614;SDS011;11474;50.790;0.298;2023-06-22T01:40:47;20.98;;;13.10;;
22614;SDS011;11474;50.790;0.298;2023-06-22T01:43:14;21.40;;;12.55;;
22614;SDS011;11474;50.790;0.298;2023-06-22T01:45:40;25.23;;;12.27;;
22614;SDS011;11474;50.790;0.298;2023-06-22T01:48:07;21.92;;;13.43;;
22614;SDS011;11474;50.790;0.298;2023-06-22T01:50:33;25.33;;;14.98;;
22614;SDS011;11474;50.790;0.298;2023-06-22T01:52:59;26.63;;;16.10;;
22614;SDS011;11474;50.790;0.298;2023-06-22T01:55:25;27.67;;;15.60;;
22614;SDS011;11474;50.790;0.298;2023-06-22T01:57:51;28.65;;;15.90;;
22614;SDS011;11474;50.790;0.298;2023-06-22T02:00:21;27.10;;;15.10;;
22614;SDS011;11474;50.790;0.298;2023-06-22T02:05:18;64.97;;;10.95;;
22614;SDS011;11474;50.790;0.298;2023-06-22T02:07:46;50.22;;;10.77;;
22614;SDS011;11474;50.790;0.298;2023-06-22T02:10:15;21.58;;;12.48;;
22614;SDS011;11474;50.790;0.298;2023-06-22T02:12:42;23.70;;;14.38;;
22614;SDS011;11474;50.790;0.298;2023-06-22T02:15:09;25.65;;;14.80;;
22614;SDS011;11474;50.790;0.298;2023-06-22T02:17:37;28.10;;;16.30;;
22614;SDS011;11474;50.790;0.298;2023-06-22T02:20:03;25.57;;;16.17;;
22614;SDS011;11474;50.790;0.298;2023-06-22T02:22:33;26.95;;;16.25;;
22614;SDS011;11474;50.790;0.298;2023-06-22T02:25:00;29.17;;;16.50;;
22614;SDS011;11474;50.790;0.298;2023-06-22T02:27:26;29.15;;;16.50;;
22614;SDS011;11474;50.790;0.298;2023-06-22T02:29:52;34.30;;;17.92;;
22614;SDS011;11474;50.790;0.298;2023-06-22T02:32:18;38.28;;;19.83;;
22614;SDS011;11474;50.790;0.298;2023-06-22T02:34:44;57.95;;;20.02;;
22614;SDS011;11474;50.790;0.298;2023-06-22T02:37:12;51.40;;;21.10;;
22614;SDS011;11474;50.790;0.298;2023-06-22T02:39:42;75.70;;;21.58;;
22614;SDS011;11474;50.790;0.298;2023-06-22T02:42:08;65.47;;;22.35;;
22614;SDS011;11474;50.790;0.298;2023-06-22T02:44:37;75.45;;;19.65;;
22614;SDS011;11474;50.790;0.298;2023-06-22T02:47:04;213.65;;;20.13;;
22614;SDS011;11474;50.790;0.298;2023-06-22T02:49:30;105.55;;;22.77;;
22614;SDS011;11474;50.790;0.298;2023-06-22T02:51:56;59.20;;;21.52;;
22614;SDS011;11474;50.790;0.298;2023-06-22T02:54:23;55.97;;;21.23;;
22614;SDS011;11474;50.790;0.298;2023-06-22T02:56:49;57.22;;;22.13;;
22614;SDS011;11474;50.790;0.298;2023-06-22T02:59:15;49.90;;;20.70;;
22614;SDS011;11474;50.790;0.298;2023-06-22T03:01:42;56.77;;;22.27;;
22614;SDS011;11474;50.790;0.298;2023-06-22T03:04:08;118.60;;;20.08;;
22614;SDS011;11474;50.790;0.298;2023-06-22T03:06:35;86.65;;;19.98;;
22614;SDS011;11474;50.790;0.298;2023-06-22T03:09:04;107.65;;;18.67;;
22614;SDS011;11474;50.790;0.298;2023-06-22T03:11:31;141.63;;;18.00;;
22614;SDS011;11474;50.790;0.298;2023-06-22T03:13:57;89.65;;;15.57;;
22614;SDS011;11474;50.790;0.298;2023-06-22T03:16:23;116.47;;;14.27;;
22614;SDS011;11474;50.790;0.298;2023-06-22T03:18:49;132.13;;;17.33;;
22614;SDS011;11474;50.790;0.298;2023-06-22T03:21:15;89.50;;;14.95;;
22614;SDS011;11474;50.790;0.298;2023-06-22T03:23:42;105.20;;;12.93;;
22614;SDS011;11474;50.790;0.298;2023-06-22T03:26:08;107.80;;;12.18;;
22614;SDS011;11474;50.790;0.298;2023-06-22T03:28:35;64.13;;;10.68;;
22614;SDS011;11474;50.790;0.298;2023-06-22T03:31:01;77.53;;;10.05;;
22614;SDS011;11474;50.790;0.298;2023-06-22T03:33:28;47.28;;;9.48;;
22614;SDS011;11474;50.790;0.298;2023-06-22T03:35:55;49.37;;;8.87;;
22614;SDS011;11474;50.790;0.298;2023-06-22T03:38:21;71.03;;;8.93;;
22614;SDS011;11474;50.790;0.298;2023-06-22T03:40:47;51.75;;;9.43;;
22614;SDS011;11474;50.790;0.298;2023-06-22T03:43:13;71.45;;;9.50;;
22614;SDS011;11474;50.790;0.298;2023-06-22T03:45:39;36.33;;;9.77;;
22614;SDS011;11474;50.790;0.298;2023-06-22T03:48:05;40.08;;;8.80;;
22614;SDS011;11474;50.790;0.298;2023-06-22T03:50:31;50.35;;;8.45;;
22614;SDS011;11474;50.790;0.298;2023-06-22T03:52:58;31.60;;;7.85;;
22614;SDS011;11474;50.790;0.298;2023-06-22T03:55:24;25.77;;;7.82;;
22614;SDS011;11474;50.790;0.298;2023-06-22T03:57:50;28.77;;;8.38;;
22614;SDS011;11474;50.790;0.298;2023-06-22T04:00:18;51.43;;;6.50;;
22614;SDS011;11474;50.790;0.298;2023-06-22T04:02:44;52.65;;;6.20;;
22614;SDS011;11474;50.790;0.298;2023-06-22T04:05:10;40.50;;;7.57;;
22614;SDS011;11474;50.790;0.298;2023-06-22T04:07:36;34.75;;;8.95;;
22614;SDS011;11474;50.790;0.298;2023-06-22T04:10:03;52.40;;;7.95;;
22614;SDS011;11474;50.790;0.298;2023-06-22T04:12:29;63.57;;;6.03;;
22614;SDS011;11474;50.790;0.298;2023-06-22T04:14:55;32.25;;;9.32;;
22614;SDS011;11474;50.790;0.298;2023-06-22T04:17:21;20.65;;;7.18;;
22614;SDS011;11474;50.790;0.298;2023-06-22T04:19:50;14.15;;;7.82;;
22614;SDS011;11474;50.790;0.298;2023-06-22T04:22:16;44.67;;;6.30;;
22614;SDS011;11474;50.790;0.298;2023-06-22T04:24:44;16.20;;;6.05;;
22614;SDS011;11474;50.790;0.298;2023-06-22T04:27:10;32.72;;;5.68;;
22614;SDS011;11474;50.790;0.298;2023-06-22T04:29:36;22.17;;;7.88;;
22614;SDS011;11474;50.790;0.298;2023-06-22T04:32:03;28.07;;;7.37;;
22614;SDS011;11474;50.790;0.298;2023-06-22T04:34:30;22.42;;;7.45;;
22614;SDS011;11474;50.790;0.298;2023-06-22T04:36:56;29.30;;;5.65;;
22614;SDS011;11474;50.790;0.298;2023-06-22T04:39:23;29.05;;;5.97;;
22614;SDS011;11474;50.790;0.298;2023-06-22T04:41:49;17.45;;;6.00;;
22614;SDS011;11474;50.790;0.298;2023-06-22T04:44:19;17.27;;;6.07;;
22614;SDS011;11474;50.790;0.298;2023-06-22T04:46:51;12.80;;;6.10;;
22614;SDS011;11474;50.790;0.298;2023-06-22T04:49:25;29.13;;;6.40;;
22614;SDS011;11474;50.790;0.298;2023-06-22T04:51:57;19.38;;;7.18;;
22614;SDS011;11474;50.790;0.298;2023-06-22T04:54:23;29.90;;;6.10;;
22614;SDS011;11474;50.790;0.298;2023-06-22T04:56:50;38.95;;;6.82;;
22614;SDS011;11474;50.790;0.298;2023-06-22T04:59:22;25.63;;;6.90;;
22614;SDS011;11474;50.790;0.298;2023-06-22T05:01:56;24.38;;;6.32;;
22614;SDS011;11474;50.790;0.298;2023-06-22T05:04:23;23.60;;;6.90;;
22614;SDS011;11474;50.790;0.298;2023-06-22T05:06:52;26.20;;;7.95;;
22614;SDS011;11474;50.790;0.298;2023-06-22T05:09:18;23.67;;;8.02;;
22614;SDS011;11474;50.790;0.298;2023-06-22T05:11:45;23.13;;;8.15;;
22614;SDS011;11474;50.790;0.298;2023-06-22T05:14:11;18.63;;;9.27;;
22614;SDS011;11474;50.790;0.298;2023-06-22T05:16:37;19.20;;;8.77;;
22614;SDS011;11474;50.790;0.298;2023-06-22T05:19:04;18.13;;;8.50;;
22614;SDS011;11474;50.790;0.298;2023-06-22T05:21:30;16.57;;;9.70;;
22614;SDS011;11474;50.790;0.298;2023-06-22T05:23:56;16.23;;;9.25;;
22614;SDS011;11474;50.790;0.298;2023-06-22T05:26:25;16.65;;;9.30;;
22614;SDS011;11474;50.790;0.298;2023-06-22T05:28:52;17.13;;;9.35;;
22614;SDS011;11474;50.790;0.298;2023-06-22T05:31:18;13.88;;;8.30;;
22614;SDS011;11474;50.790;0.298;2023-06-22T05:33:45;15.00;;;8.38;;
22614;SDS011;11474;50.790;0.298;2023-06-22T05:36:12;15.75;;;8.82;;
22614;SDS011;11474;50.790;0.298;2023-06-22T05:38:38;16.27;;;8.80;;
22614;SDS011;11474;50.790;0.298;2023-06-22T05:41:04;14.15;;;8.35;;
22614;SDS011;11474;50.790;0.298;2023-06-22T05:43:31;15.45;;;7.95;;
22614;SDS011;11474;50.790;0.298;2023-06-22T05:45:57;16.57;;;8.93;;
22614;SDS011;11474;50.790;0.298;2023-06-22T05:48:23;17.25;;;9.23;;
22614;SDS011;11474;50.790;0.298;2023-06-22T05:50:49;15.63;;;9.27;;
22614;SDS011;11474;50.790;0.298;2023-06-22T05:53:15;18.75;;;9.80;;
22614;SDS011;11474;50.790;0.298;2023-06-22T05:55:41;17.38;;;9.80;;
22614;SDS011;11474;50.790;0.298;2023-06-22T05:58:08;16.58;;;9.90;;
22614;SDS011;11474;50.790;0.298;2023-06-22T06:00:34;17.65;;;10.63;;
22614;SDS011;11474;50.790;0.298;2023-06-22T06:03:01;20.42;;;11.30;;
22614;SDS011;11474;50.790;0.298;2023-06-22T06:05:34;21.98;;;11.80;;
22614;SDS011;11474;50.790;0.298;2023-06-22T06:08:01;17.75;;;11.27;;
22614;SDS011;11474;50.790;0.298;2023-06-22T06:10:28;18.50;;;11.15;;
22614;SDS011;11474;50.790;0.298;2023-06-22T06:12:57;23.90;;;12.45;;
22614;SDS011;11474;50.790;0.298;2023-06-22T06:15:23;23.50;;;12.55;;
22614;SDS011;11474;50.790;0.298;2023-06-22T06:17:50;25.88;;;13.18;;
22614;SDS011;11474;50.790;0.298;2023-06-22T06:20:18;27.30;;;13.23;;
22614;SDS011;11474;50.790;0.298;2023-06-22T06:22:45;26.13;;;13.77;;
22614;SDS011;11474;50.790;0.298;2023-06-22T06:25:11;23.27;;;13.88;;
22614;SDS011;11474;50.790;0.298;2023-06-22T06:27:44;27.33;;;13.82;;
22614;SDS011;11474;50.790;0.298;2023-06-22T06:30:11;27.40;;;14.85;;
22614;SDS011;11474;50.790;0.298;2023-06-22T06:32:37;26.52;;;14.77;;
22614;SDS011;11474;50.790;0.298;2023-06-22T06:35:07;30.70;;;14.97;;
22614;SDS011;11474;50.790;0.298;2023-06-22T06:37:36;26.33;;;14.50;;
22614;SDS011;11474;50.790;0.298;2023-06-22T06:40:03;30.55;;;16.02;;
22614;SDS011;11474;50.790;0.298;2023-06-22T06:42:36;31.15;;;16.55;;
22614;SDS011;11474;50.790;0.298;2023-06-22T06:45:04;31.17;;;16.27;;
22614;SDS011;11474;50.790;0.298;2023-06-22T06:47:30;30.90;;;16.40;;
22614;SDS011;11474;50.790;0.298;2023-06-22T06:49:56;36.10;;;17.55;;
22614;SDS011;11474;50.790;0.298;2023-06-22T06:52:22;30.55;;;17.45;;
22614;SDS011;11474;50.790;0.298;2023-06-22T06:54:48;29.33;;;16.33;;
22614;SDS011;11474;50.790;0.298;2023-06-22T06:57:16;31.27;;;16.60;;
22614;SDS011;11474;50.790;0.298;2023-06-22T06:59:43;29.48;;;16.30;;
22614;SDS011;11474;50.790;0.298;2023-06-22T07:02:09;31.42;;;16.13;;
22614;SDS011;11474;50.790;0.298;2023-06-22T07:04:35;29.60;;;16.20;;
22614;SDS011;11474;50.790;0.298;2023-06-22T07:07:01;30.90;;;17.00;;
22614;SDS011;11474;50.790;0.298;2023-06-22T07:09:28;29.92;;;17.45;;
22614;SDS011;11474;50.790;0.298;2023-06-22T07:11:54;29.42;;;16.48;;
22614;SDS011;11474;50.790;0.298;2023-06-22T07:14:20;25.77;;;14.90;;
22614;SDS011;11474;50.790;0.298;2023-06-22T07:16:46;26.77;;;15.32;;
22614;SDS011;11474;50.790;0.298;2023-06-22T07:19:12;26.40;;;14.60;;
22614;SDS011;11474;50.790;0.298;2023-06-22T07:21:38;23.27;;;13.77;;
22614;SDS011;11474;50.790;0.298;2023-06-22T07:24:04;26.23;;;14.65;;
22614;SDS011;11474;50.790;0.298;2023-06-22T07:26:31;26.60;;;14.70;;
22614;SDS011;11474;50.790;0.298;2023-06-22T07:28:57;26.13;;;14.47;;
22614;SDS011;11474;50.790;0.298;2023-06-22T07:31:24;25.95;;;15.02;;
22614;SDS011;11474;50.790;0.298;2023-06-22T07:33:50;25.67;;;15.30;;
22614;SDS011;11474;50.790;0.298;2023-06-22T07:36:16;26.20;;;14.00;;
22614;SDS011;11474;50.790;0.298;2023-06-22T07:38:42;21.60;;;13.52;;
22614;SDS011;11474;50.790;0.298;2023-06-22T07:41:09;22.55;;;12.80;;
22614;SDS011;11474;50.790;0.298;2023-06-22T07:43:35;23.87;;;13.00;;
22614;SDS011;11474;50.790;0.298;2023-06-22T07:46:05;20.23;;;12.80;;
22614;SDS011;11474;50.790;0.298;2023-06-22T07:48:31;19.27;;;11.35;;
22614;SDS011;11474;50.790;0.298;2023-06-22T07:50:57;21.23;;;12.00;;
22614;SDS011;11474;50.790;0.298;2023-06-22T07:53:23;23.95;;;11.85;;
22614;SDS011;11474;50.790;0.298;2023-06-22T07:55:50;22.02;;;11.90;;
22614;SDS011;11474;50.790;0.298;2023-06-22T07:58:16;18.83;;;10.55;;
22614;SDS011;11474;50.790;0.298;2023-06-22T08:00:44;19.50;;;10.40;;
22614;SDS011;11474;50.790;0.298;2023-06-22T08:03:10;18.95;;;11.80;;
22614;SDS011;11474;50.790;0.298;2023-06-22T08:05:36;21.27;;;11.87;;
22614;SDS011;11474;50.790;0.298;2023-06-22T08:08:02;19.00;;;11.15;;
22614;SDS011;11474;50.790;0.298;2023-06-22T08:10:28;20.17;;;10.82;;
22614;SDS011;11474;50.790;0.298;2023-06-22T08:12:54;22.63;;;10.43;;
22614;SDS011;11474;50.790;0.298;2023-06-22T08:15:20;16.75;;;10.70;;
22614;SDS011;11474;50.790;0.298;2023-06-22T08:17:47;17.58;;;9.90;;
22614;SDS011;11474;50.790;0.298;2023-06-22T08:20:13;13.03;;;8.30;;
22614;SDS011;11474;50.790;0.298;2023-06-22T08:22:40;15.27;;;8.43;;
22614;SDS011;11474;50.790;0.298;2023-06-22T08:25:06;18.33;;;9.27;;
22614;SDS011;11474;50.790;0.298;2023-06-22T08:27:32;16.50;;;9.43;;
22614;SDS011;11474;50.790;0.298;2023-06-22T08:29:59;20.85;;;9.15;;
22614;SDS011;11474;50.790;0.298;2023-06-22T08:32:25;16.57;;;8.10;;
22614;SDS011;11474;50.790;0.298;2023-06-22T08:34:55;13.33;;;7.83;;
22614;SDS011;11474;50.790;0.298;2023-06-22T08:37:21;16.63;;;9.10;;
22614;SDS011;11474;50.790;0.298;2023-06-22T08:39:58;12.27;;;7.17;;
22614;SDS011;11474;50.790;0.298;2023-06-22T08:42:26;10.55;;;6.22;;
22614;SDS011;11474;50.790;0.298;2023-06-22T08:44:52;9.13;;;6.00;;
22614;SDS011;11474;50.790;0.298;2023-06-22T08:47:18;10.43;;;5.68;;
22614;SDS011;11474;50.790;0.298;2023-06-22T08:49:46;10.93;;;5.30;;
22614;SDS011;11474;50.790;0.298;2023-06-22T08:52:12;10.90;;;5.20;;
22614;SDS011;11474;50.790;0.298;2023-06-22T08:54:38;9.40;;;5.20;;
22614;SDS011;11474;50.790;0.298;2023-06-22T08:57:05;9.83;;;4.70;;
22614;SDS011;11474;50.790;0.298;2023-06-22T08:59:31;9.60;;;4.80;;
22614;SDS011;11474;50.790;0.298;2023-06-22T09:01:57;12.90;;;6.53;;
22614;SDS011;11474;50.790;0.298;2023-06-22T09:04:23;8.55;;;4.68;;
22614;SDS011;11474;50.790;0.298;2023-06-22T09:06:50;9.15;;;4.57;;
22614;SDS011;11474;50.790;0.298;2023-06-22T09:09:17;8.83;;;4.23;;
22614;SDS011;11474;50.790;0.298;2023-06-22T09:11:43;10.23;;;4.20;;
22614;SDS011;11474;50.790;0.298;2023-06-22T09:14:10;8.35;;;3.97;;
22614;SDS011;11474;50.790;0.298;2023-06-22T09:16:36;8.80;;;3.67;;
22614;SDS011;11474;50.790;0.298;2023-06-22T09:19:02;8.75;;;4.32;;
22614;SDS011;11474;50.790;0.298;2023-06-22T09:21:28;10.47;;;4.63;;
22614;SDS011;11474;50.790;0.298;2023-06-22T09:23:54;8.75;;;4.57;;
22614;SDS011;11474;50.790;0.298;2023-06-22T09:26:21;8.55;;;4.20;;
22614;SDS011;11474;50.790;0.298;2023-06-22T09:28:49;9.38;;;4.90;;
22614;SDS011;11474;50.790;0.298;2023-06-22T09:31:15;6.67;;;3.57;;
22614;SDS011;11474;50.790;0.298;2023-06-22T09:33:42;5.53;;;3.10;;
22614;SDS011;11474;50.790;0.298;2023-06-22T09:36:09;6.68;;;3.47;;
22614;SDS011;11474;50.790;0.298;2023-06-22T09:38:38;5.32;;;3.17;;
22614;SDS011;11474;50.790;0.298;2023-06-22T09:41:04;8.40;;;3.50;;
22614;SDS011;11474;50.790;0.298;2023-06-22T09:43:31;8.73;;;3.72;;
22614;SDS011;11474;50.790;0.298;2023-06-22T09:46:00;6.23;;;3.53;;
22614;SDS011;11474;50.790;0.298;2023-06-22T09:48:27;7.32;;;3.60;;
22614;SDS011;11474;50.790;0.298;2023-06-22T09:50:54;9.07;;;3.60;;
22614;SDS011;11474;50.790;0.298;2023-06-22T09:53:20;5.95;;;3.50;;
22614;SDS011;11474;50.790;0.298;2023-06-22T09:55:47;8.20;;;3.72;;
22614;SDS011;11474;50.790;0.298;2023-06-22T09:58:13;7.43;;;3.15;;
22614;SDS011;11474;50.790;0.298;2023-06-22T10:00:39;5.75;;;2.97;;
22614;SDS011;11474;50.790;0.298;2023-06-22T10:03:06;6.30;;;3.15;;
22614;SDS011;11474;50.790;0.298;2023-06-22T10:05:32;5.80;;;3.30;;
22614;SDS011;11474;50.790;0.298;2023-06-22T10:07:59;5.00;;;2.85;;
22614;SDS011;11474;50.790;0.298;2023-06-22T10:10:25;4.50;;;2.58;;
22614;SDS011;11474;50.790;0.298;2023-06-22T10:12:55;4.38;;;2.50;;
22614;SDS011;11474;50.790;0.298;2023-06-22T10:15:22;4.97;;;2.60;;
22614;SDS011;11474;50.790;0.298;2023-06-22T10:17:48;7.75;;;3.17;;
22614;SDS011;11474;50.790;0.298;2023-06-22T10:20:14;6.10;;;2.67;;
22614;SDS011;11474;50.790;0.298;2023-06-22T10:22:43;5.82;;;2.85;;
22614;SDS011;11474;50.790;0.298;2023-06-22T10:25:10;4.68;;;2.70;;
22614;SDS011;11474;50.790;0.298;2023-06-22T10:27:36;4.63;;;2.40;;
22614;SDS011;11474;50.790;0.298;2023-06-22T10:30:05;4.72;;;2.50;;
22614;SDS011;11474;50.790;0.298;2023-06-22T10:32:31;4.18;;;2.50;;
22614;SDS011;11474;50.790;0.298;2023-06-22T10:34:58;4.75;;;2.63;;
22614;SDS011;11474;50.790;0.298;2023-06-22T10:37:24;4.82;;;2.80;;
22614;SDS011;11474;50.790;0.298;2023-06-22T10:39:50;3.83;;;2.35;;
22614;SDS011;11474;50.790;0.298;2023-06-22T10:42:16;5.70;;;2.55;;
22614;SDS011;11474;50.790;0.298;2023-06-22T10:44:42;5.27;;;2.67;;
22614;SDS011;11474;50.790;0.298;2023-06-22T10:47:09;5.57;;;2.80;;
22614;SDS011;11474;50.790;0.298;2023-06-22T10:49:39;7.82;;;2.72;;
22614;SDS011;11474;50.790;0.298;2023-06-22T10:52:08;4.25;;;2.75;;
22614;SDS011;11474;50.790;0.298;2023-06-22T10:54:35;4.50;;;2.33;;
22614;SDS011;11474;50.790;0.298;2023-06-22T10:57:01;4.22;;;2.70;;
22614;SDS011;11474;50.790;0.298;2023-06-22T10:59:28;5.07;;;2.43;;
22614;SDS011;11474;50.790;0.298;2023-06-22T11:01:58;7.45;;;3.92;;
22614;SDS011;11474;50.790;0.298;2023-06-22T11:04:24;7.13;;;4.20;;
22614;SDS011;11474;50.790;0.298;2023-06-22T11:06:50;7.40;;;3.80;;
22614;SDS011;11474;50.790;0.298;2023-06-22T11:09:17;6.85;;;3.92;;
22614;SDS011;11474;50.790;0.298;2023-06-22T11:11:45;5.45;;;2.95;;
22614;SDS011;11474;50.790;0.298;2023-06-22T11:14:12;7.78;;;4.47;;
22614;SDS011;11474;50.790;0.298;2023-06-22T11:16:38;7.88;;;4.10;;
22614;SDS011;11474;50.790;0.298;2023-06-22T11:19:04;8.05;;;4.00;;
22614;SDS011;11474;50.790;0.298;2023-06-22T11:21:31;9.77;;;4.00;;
22614;SDS011;11474;50.790;0.298;2023-06-22T11:23:57;6.45;;;3.60;;
22614;SDS011;11474;50.790;0.298;2023-06-22T11:26:24;7.50;;;3.90;;
22614;SDS011;11474;50.790;0.298;2023-06-22T11:28:52;7.95;;;4.50;;
22614;SDS011;11474;50.790;0.298;2023-06-22T11:31:18;8.88;;;3.92;;
22614;SDS011;11474;50.790;0.298;2023-06-22T11:33:44;8.38;;;3.80;;
22614;SDS011;11474;50.790;0.298;2023-06-22T11:36:12;9.15;;;3.75;;
22614;SDS011;11474;50.790;0.298;2023-06-22T11:38:38;8.10;;;4.18;;
22614;SDS011;11474;50.790;0.298;2023-06-22T11:41:07;8.67;;;4.67;;
22614;SDS011;11474;50.790;0.298;2023-06-22T11:43:33;11.87;;;5.50;;
22614;SDS011;11474;50.790;0.298;2023-06-22T11:46:00;10.40;;;4.90;;
22614;SDS011;11474;50.790;0.298;2023-06-22T11:48:26;7.88;;;4.10;;
22614;SDS011;11474;50.790;0.298;2023-06-22T11:50:53;7.82;;;3.75;;
22614;SDS011;11474;50.790;0.298;2023-06-22T11:53:20;9.40;;;3.90;;
22614;SDS011;11474;50.790;0.298;2023-06-22T11:55:46;7.90;;;3.70;;
22614;SDS011;11474;50.790;0.298;2023-06-22T11:58:14;5.97;;;3.42;;
22614;SDS011;11474;50.790;0.298;2023-06-22T12:00:40;7.85;;;3.47;;
22614;SDS011;11474;50.790;0.298;2023-06-22T12:03:07;7.15;;;3.58;;
22614;SDS011;11474;50.790;0.298;2023-06-22T12:05:33;9.30;;;4.45;;
22614;SDS011;11474;50.790;0.298;2023-06-22T12:07:59;8.50;;;4.97;;
22614;SDS011;11474;50.790;0.298;2023-06-22T12:10:25;8.88;;;4.78;;
22614;SDS011;11474;50.790;0.298;2023-06-22T12:12:53;7.00;;;4.10;;
22614;SDS011;11474;50.790;0.298;2023-06-22T12:15:19;9.30;;;4.25;;
22614;SDS011;11474;50.790;0.298;2023-06-22T12:17:46;6.75;;;3.63;;
22614;SDS011;11474;50.790;0.298;2023-06-22T12:20:13;9.73;;;4.60;;
22614;SDS011;11474;50.790;0.298;2023-06-22T12:22:40;7.38;;;4.30;;
22614;SDS011;11474;50.790;0.298;2023-06-22T12:25:07;7.68;;;3.92;;
22614;SDS011;11474;50.790;0.298;2023-06-22T12:27:33;8.77;;;4.18;;
22614;SDS011;11474;50.790;0.298;2023-06-22T12:30:00;8.67;;;4.40;;
22614;SDS011;11474;50.790;0.298;2023-06-22T12:32:26;7.72;;;4.30;;
22614;SDS011;11474;50.790;0.298;2023-06-22T12:34:52;8.48;;;4.00;;
22614;SDS011;11474;50.790;0.298;2023-06-22T12:37:18;10.32;;;4.32;;
22614;SDS011;11474;50.790;0.298;2023-06-22T12:39:44;8.35;;;3.90;;
22614;SDS011;11474;50.790;0.298;2023-06-22T12:42:10;7.90;;;4.13;;
22614;SDS011;11474;50.790;0.298;2023-06-22T12:44:37;10.30;;;3.80;;
22614;SDS011;11474;50.790;0.298;2023-06-22T12:47:04;7.68;;;3.90;;
22614;SDS011;11474;50.790;0.298;2023-06-22T12:49:30;7.50;;;3.97;;
22614;SDS011;11474;50.790;0.298;2023-06-22T12:51:57;7.32;;;4.25;;
22614;SDS011;11474;50.790;0.298;2023-06-22T12:54:23;11.90;;;4.40;;
22614;SDS011;11474;50.790;0.298;2023-06-22T12:56:52;9.23;;;4.30;;
22614;SDS011;11474;50.790;0.298;2023-06-22T12:59:18;9.68;;;4.43;;
22614;SDS011;11474;50.790;0.298;2023-06-22T13:01:44;7.80;;;4.40;;
22614;SDS011;11474;50.790;0.298;2023-06-22T13:04:11;6.82;;;4.50;;
22614;SDS011;11474;50.790;0.298;2023-06-22T13:06:40;10.70;;;5.00;;
22614;SDS011;11474;50.790;0.298;2023-06-22T13:09:06;8.40;;;5.00;;
22614;SDS011;11474;50.790;0.298;2023-06-22T13:11:33;11.30;;;5.00;;
22614;SDS011;11474;50.790;0.298;2023-06-22T13:13:59;9.02;;;4.03;;
22614;SDS011;11474;50.790;0.298;2023-06-22T13:16:25;11.13;;;4.80;;
22614;SDS011;11474;50.790;0.298;2023-06-22T13:18:52;9.20;;;5.00;;
22614;SDS011;11474;50.790;0.298;2023-06-22T13:21:18;13.05;;;5.43;;
22614;SDS011;11474;50.790;0.298;2023-06-22T13:23:44;9.93;;;5.18;;
22614;SDS011;11474;50.790;0.298;2023-06-22T13:26:10;11.10;;;5.10;;
22614;SDS011;11474;50.790;0.298;2023-06-22T13:28:36;11.60;;;5.35;;
22614;SDS011;11474;50.790;0.298;2023-06-22T13:31:02;8.05;;;4.88;;
22614;SDS011;11474;50.790;0.298;2023-06-22T13:33:28;12.05;;;5.35;;
22614;SDS011;11474;50.790;0.298;2023-06-22T13:35:54;10.57;;;5.60;;
22614;SDS011;11474;50.790;0.298;2023-06-22T13:38:20;13.15;;;6.20;;
22614;SDS011;11474;50.790;0.298;2023-06-22T13:40:47;11.63;;;5.57;;
22614;SDS011;11474;50.790;0.298;2023-06-22T13:43:13;10.30;;;5.22;;
22614;SDS011;11474;50.790;0.298;2023-06-22T13:45:40;10.67;;;5.20;;
22614;SDS011;11474;50.790;0.298;2023-06-22T13:48:07;13.63;;;5.10;;
22614;SDS011;11474;50.790;0.298;2023-06-22T13:50:33;11.43;;;5.60;;
22614;SDS011;11474;50.790;0.298;2023-06-22T13:52:59;13.02;;;5.20;;
22614;SDS011;11474;50.790;0.298;2023-06-22T13:55:26;12.93;;;5.50;;
22614;SDS011;11474;50.790;0.298;2023-06-22T13:57:52;15.77;;;5.30;;
22614;SDS011;11474;50.790;0.298;2023-06-22T14:00:18;9.63;;;5.18;;
22614;SDS011;11474;50.790;0.298;2023-06-22T14:02:45;9.48;;;5.32;;
22614;SDS011;11474;50.790;0.298;2023-06-22T14:05:11;9.00;;;4.80;;
22614;SDS011;11474;50.790;0.298;2023-06-22T14:07:37;11.40;;;5.50;;
22614;SDS011;11474;50.790;0.298;2023-06-22T14:10:04;13.35;;;6.05;;
22614;SDS011;11474;50.790;0.298;2023-06-22T14:12:30;15.25;;;6.13;;
22614;SDS011;11474;50.790;0.298;2023-06-22T14:14:56;11.35;;;5.75;;
22614;SDS011;11474;50.790;0.298;2023-06-22T14:17:22;9.90;;;5.32;;
22614;SDS011;11474;50.790;0.298;2023-06-22T14:19:50;14.70;;;6.25;;
22614;SDS011;11474;50.790;0.298;2023-06-22T14:22:20;10.40;;;5.68;;
22614;SDS011;11474;50.790;0.298;2023-06-22T14:24:47;11.63;;;5.55;;
22614;SDS011;11474;50.790;0.298;2023-06-22T14:27:13;9.27;;;5.28;;
22614;SDS011;11474;50.790;0.298;2023-06-22T14:29:39;11.90;;;5.65;;
22614;SDS011;11474;50.790;0.298;2023-06-22T14:32:05;11.32;;;5.75;;
22614;SDS011;11474;50.790;0.298;2023-06-22T14:34:32;11.75;;;5.45;;
22614;SDS011;11474;50.790;0.298;2023-06-22T14:37:00;10.02;;;5.70;;
22614;SDS011;11474;50.790;0.298;2023-06-22T14:39:27;11.43;;;5.55;;